Time;durP1;ratioP1;P1;durP2;ratioP2;P2;SDS_P1;SDS_P2;PMS_P1;PMS_P2;Temp;Humidity;BMP_temperature;BMP_pressure;BME280_temperature;BME280_humidity;BME280_pressure;Samples;Min_cycle;Max_cycle;Signal;HPM_P1;HPM_P2
2023/05/31 00:06:42;;;;;;;7.43;3.75;;;10.30;99.90;;;;;;20910639;28;20162;-47
2023/05/31 00:16:43;;;;;;;10.70;4.47;;;10.40;99.90;;;;;;20917567;28;20040;-46
2023/05/31 00:26:45;;;;;;;5.78;3.83;;;10.40;99.90;;;;;;20915513;28;20437;-56
2023/05/31 00:36:46;;;;;;;7.07;4.45;;;10.20;99.90;;;;;;20910658;28;20086;-46
2023/05/31 00:46:49;;;;;;;7.63;5.40;;;10.20;99.90;;;;;;20913786;28;20138;-51
2023/05/31 00:56:51;;;;;;;7.20;5.03;;;10.10;99.90;;;;;;20911037;28;20052;-49
2023/05/31 01:06:53;;;;;;;7.82;4.85;;;10.00;99.90;;;;;;20905607;28;20025;-48
2023/05/31 01:17:08;;;;;;;5.70;4.18;;;10.00;99.90;;;;;;20910718;28;20021;-48
2023/05/31 01:27:11;;;;;;;7.70;5.15;;;10.30;99.90;;;;;;20908260;28;20102;-46
2023/05/31 01:37:13;;;;;;;6.38;4.32;;;10.30;99.90;;;;;;20906713;28;20044;-56
2023/05/31 01:47:15;;;;;;;7.95;3.97;;;10.60;99.90;;;;;;20906333;28;20113;-47
2023/05/31 01:57:18;;;;;;;7.28;3.90;;;10.70;99.90;;;;;;20907457;28;20029;-46
2023/05/31 02:07:21;;;;;;;6.38;3.38;;;10.60;99.90;;;;;;20907641;28;20037;-47
2023/05/31 02:17:23;;;;;;;9.43;4.18;;;10.50;99.90;;;;;;20903201;28;20036;-49
2023/05/31 02:27:24;;;;;;;6.13;3.80;;;10.40;99.90;;;;;;20903577;28;20540;-46
2023/05/31 02:37:26;;;;;;;5.50;3.60;;;10.40;99.90;;;;;;20901468;28;20057;-45
2023/05/31 02:47:28;;;;;;;4.75;3.20;;;10.40;99.90;;;;;;20905633;28;20029;-49
2023/05/31 02:57:30;;;;;;;8.85;3.80;;;10.30;99.90;;;;;;20904638;28;20045;-56
2023/05/31 03:07:33;;;;;;;6.20;3.63;;;10.20;99.90;;;;;;20907524;28;20033;-56
2023/05/31 03:17:37;;;;;;;9.38;4.32;;;10.30;99.90;;;;;;20899963;28;20466;-45
2023/05/31 03:27:38;;;;;;;10.27;4.10;;;10.20;99.90;;;;;;20904435;28;20103;-47
2023/05/31 03:37:40;;;;;;;8.30;4.38;;;10.40;99.90;;;;;;20897968;28;20131;-56
2023/05/31 03:47:44;;;;;;;8.68;4.22;;;10.30;99.90;;;;;;20897983;28;20032;-46
2023/05/31 03:57:46;;;;;;;7.38;4.45;;;10.20;99.90;;;;;;20903286;28;20452;-54
2023/05/31 04:07:48;;;;;;;9.68;4.13;;;10.20;99.90;;;;;;20915620;28;20041;-54
2023/05/31 04:17:49;;;;;;;6.43;4.10;;;10.40;99.90;;;;;;20915659;28;20033;-47
2023/05/31 04:27:51;;;;;;;6.68;4.32;;;10.50;99.90;;;;;;20911551;28;20033;-45
2023/05/31 04:37:54;;;;;;;9.18;4.43;;;10.60;99.90;;;;;;20910773;28;20458;-47
2023/05/31 04:47:57;;;;;;;6.63;4.20;;;10.80;99.90;;;;;;20909482;28;20040;-50
2023/05/31 04:57:59;;;;;;;6.20;3.85;;;11.10;99.90;;;;;;20909108;28;20051;-57
2023/05/31 05:08:02;;;;;;;8.85;3.92;;;11.30;99.90;;;;;;20907148;28;20050;-49
2023/05/31 05:18:04;;;;;;;6.65;3.65;;;11.50;99.90;;;;;;20906918;28;20090;-47
2023/05/31 05:28:07;;;;;;;7.40;3.80;;;11.80;99.90;;;;;;20915499;28;20474;-48
2023/05/31 05:38:10;;;;;;;6.07;3.53;;;12.20;99.90;;;;;;20905630;28;20102;-57
2023/05/31 05:48:13;;;;;;;4.90;3.40;;;12.90;99.90;;;;;;20905245;28;20091;-46
2023/05/31 05:58:16;;;;;;;6.32;3.58;;;13.30;99.90;;;;;;20912573;28;20512;-45
2023/05/31 06:08:36;;;;;;;4.38;3.25;;;13.00;99.90;;;;;;20905677;28;20032;-50
2023/05/31 06:18:38;;;;;;;6.28;3.13;;;13.10;99.90;;;;;;20902741;28;20391;-48
2023/05/31 06:28:40;;;;;;;5.47;2.80;;;13.30;99.90;;;;;;20910414;28;20486;-47
2023/05/31 06:38:51;;;;;;;3.88;2.78;;;14.10;99.90;;;;;;20904634;28;20052;-47
2023/05/31 06:48:53;;;;;;;3.97;3.08;;;16.70;99.90;;;;;;20900593;28;20056;-58
2023/05/31 06:59:14;;;;;;;9.95;3.90;;;17.50;98.00;;;;;;20904748;28;20090;-58
2023/05/31 07:09:15;;;;;;;5.82;3.35;;;18.60;95.40;;;;;;20905468;28;20033;-50
2023/05/31 07:19:29;;;;;;;4.60;3.58;;;19.50;92.00;;;;;;20902558;28;20033;-56
2023/05/31 07:29:31;;;;;;;4.97;3.50;;;18.00;94.60;;;;;;20899651;28;20037;-50
2023/05/31 07:39:32;;;;;;;4.18;3.00;;;16.20;96.60;;;;;;20912709;28;20111;-57
2023/05/31 07:49:34;;;;;;;6.38;3.30;;;15.40;99.00;;;;;;20918624;28;20044;-57
2023/05/31 07:59:36;;;;;;;6.32;3.58;;;15.90;99.70;;;;;;20914075;28;20037;-58
2023/05/31 08:09:37;;;;;;;5.10;3.60;;;17.30;97.10;;;;;;20912603;28;20918;-57
2023/05/31 08:19:39;;;;;;;5.93;3.40;;;19.40;99.00;;;;;;20912722;28;20025;-47
2023/05/31 08:29:40;;;;;;;4.47;3.20;;;21.00;94.50;;;;;;20910845;28;20117;-58
2023/05/31 08:39:42;;;;;;;5.32;3.55;;;21.80;92.70;;;;;;20910271;28;20088;-57
2023/05/31 08:49:45;;;;;;;5.40;3.33;;;22.70;95.40;;;;;;20908196;28;20063;-57
2023/05/31 08:59:49;;;;;;;4.88;3.80;;;23.60;96.70;;;;;;20908876;28;20474;-57
2023/05/31 09:09:51;;;;;;;4.25;3.17;;;23.70;98.20;;;;;;20909036;28;20044;-58
2023/05/31 09:19:55;;;;;;;5.22;3.17;;;24.00;94.70;;;;;;20908038;28;20063;-47
2023/05/31 09:29:57;;;;;;;4.80;3.78;;;23.80;96.30;;;;;;20906843;28;20037;-58
2023/05/31 09:39:58;;;;;;;4.35;3.53;;;24.60;92.40;;;;;;20909841;28;20057;-58
2023/05/31 09:50:01;;;;;;;7.40;3.38;;;23.90;93.20;;;;;;20910482;28;20044;-48
2023/05/31 10:00:11;;;;;;;3.67;3.00;;;25.10;93.50;;;;;;20904526;28;20033;-58
2023/05/31 10:10:14;;;;;;;7.88;3.42;;;25.10;91.10;;;;;;20900999;28;20037;-47
2023/05/31 10:20:19;;;;;;;6.05;3.17;;;24.20;93.30;;;;;;20907800;28;20040;-56
2023/05/31 10:30:26;;;;;;;5.68;3.33;;;25.30;89.30;;;;;;20908418;28;20033;-58
2023/05/31 10:40:42;;;;;;;5.27;3.23;;;24.00;85.40;;;;;;20900052;28;20053;-57
2023/05/31 10:50:55;;;;;;;4.82;3.58;;;22.00;90.00;;;;;;20897453;28;20029;-47
2023/05/31 11:00:57;;;;;;;5.15;3.30;;;20.70;92.60;;;;;;20897642;28;20037;-58
2023/05/31 11:11:40;;;;;;;5.93;3.63;;;20.90;93.20;;;;;;20893814;28;20025;-60
2023/05/31 11:21:51;;;;;;;6.18;3.50;;;22.30;92.40;;;;;;20887030;28;20053;-60
2023/05/31 11:31:55;;;;;;;7.10;3.90;;;24.30;91.70;;;;;;20886254;28;20490;-59
2023/05/31 11:41:58;;;;;;;7.40;4.18;;;24.30;88.50;;;;;;20886684;28;20041;-52
2023/05/31 11:52:01;;;;;;;4.47;3.53;;;23.40;85.90;;;;;;20897736;28;20041;-59
2023/05/31 12:02:04;;;;;;;6.10;3.85;;;22.90;89.20;;;;;;20899119;28;20039;-61
2023/05/31 12:12:06;;;;;;;7.93;4.00;;;22.90;90.70;;;;;;20901396;28;20037;-58
2023/05/31 12:22:08;;;;;;;3.90;3.50;;;23.90;88.90;;;;;;20910870;28;20090;-56
2023/05/31 12:32:10;;;;;;;5.28;4.30;;;24.50;84.10;;;;;;20914214;28;20032;-58
2023/05/31 12:42:12;;;;;;;4.90;3.90;;;24.30;89.60;;;;;;20906401;28;20045;-55
2023/05/31 12:52:15;;;;;;;6.90;4.65;;;23.90;93.20;;;;;;20905381;28;20037;-57
2023/05/31 13:02:17;;;;;;;8.18;4.60;;;24.40;92.90;;;;;;20903211;28;20083;-57
2023/05/31 13:12:20;;;;;;;6.03;4.40;;;25.60;91.10;;;;;;20907184;28;20532;-49
2023/05/31 13:22:22;;;;;;;5.70;4.40;;;24.30;85.70;;;;;;20918495;28;20509;-51
2023/05/31 13:32:24;;;;;;;6.18;4.50;;;21.20;91.60;;;;;;20912527;28;20028;-48
2023/05/31 13:42:26;;;;;;;5.68;4.68;;;19.60;96.80;;;;;;20905732;28;20055;-49
2023/05/31 13:52:28;;;;;;;6.65;4.63;;;19.50;95.40;;;;;;20900524;28;20037;-46
2023/05/31 14:02:31;;;;;;;7.47;5.50;;;20.80;93.50;;;;;;20909325;28;20029;-52
2023/05/31 14:12:33;;;;;;;9.02;5.60;;;22.60;92.40;;;;;;20906595;28;20036;-47
2023/05/31 14:22:35;;;;;;;8.60;5.70;;;20.80;95.20;;;;;;20903842;28;20028;-54
2023/05/31 14:32:36;;;;;;;6.80;5.07;;;21.20;92.00;;;;;;20901288;28;20098;-55
2023/05/31 14:42:38;;;;;;;6.45;4.70;;;23.80;86.20;;;;;;20899722;28;20074;-46
2023/05/31 14:52:42;;;;;;;7.45;5.03;;;24.60;87.50;;;;;;20900146;28;20052;-56
2023/05/31 15:02:43;;;;;;;8.13;5.00;;;24.80;86.80;;;;;;20898061;28;20455;-51
2023/05/31 15:12:47;;;;;;;7.80;4.80;;;22.40;89.30;;;;;;20900131;28;20025;-52
2023/05/31 15:22:48;;;;;;;6.90;4.75;;;21.20;90.10;;;;;;20900529;28;20037;-48
2023/05/31 15:32:50;;;;;;;6.53;5.15;;;20.80;92.00;;;;;;20896739;28;20025;-48
2023/05/31 15:42:51;;;;;;;8.77;4.60;;;19.00;93.50;;;;;;20898503;28;20029;-47
2023/05/31 15:52:53;;;;;;;6.28;4.80;;;17.50;96.00;;;;;;20900833;28;20048;-51
2023/05/31 16:02:55;;;;;;;6.80;4.65;;;17.20;98.00;;;;;;20910228;28;20037;-51
2023/05/31 16:12:58;;;;;;;6.90;5.22;;;17.80;95.80;;;;;;20920475;28;20033;-48
2023/05/31 16:23:00;;;;;;;9.95;4.70;;;18.80;94.60;;;;;;20922276;28;20029;-50
2023/05/31 16:33:01;;;;;;;6.65;4.50;;;19.20;94.00;;;;;;20909778;28;20040;-54
2023/05/31 16:43:03;;;;;;;7.63;5.18;;;18.30;95.70;;;;;;20910453;28;20046;-49
2023/05/31 16:53:05;;;;;;;7.13;4.43;;;17.40;99.50;;;;;;20909686;28;20079;-48
2023/05/31 17:03:07;;;;;;;9.82;5.03;;;17.10;99.10;;;;;;20908502;28;21420;-52
2023/05/31 17:13:08;;;;;;;8.93;5.53;;;17.20;99.70;;;;;;20912612;28;20040;-47
2023/05/31 17:23:10;;;;;;;6.00;4.95;;;17.10;99.90;;;;;;20907557;28;20044;-50
2023/05/31 17:33:12;;;;;;;6.30;5.00;;;16.70;99.90;;;;;;20906343;28;20033;-47
2023/05/31 17:43:14;;;;;;;10.05;5.35;;;16.10;99.90;;;;;;20909170;28;20037;-46
2023/05/31 17:53:17;;;;;;;10.60;5.78;;;15.20;99.90;;;;;;20905346;28;20033;-50
2023/05/31 18:03:18;;;;;;;9.43;6.22;;;14.80;99.90;;;;;;20906969;28;20059;-48
2023/05/31 18:13:20;;;;;;;9.05;5.53;;;14.60;99.90;;;;;;20916451;28;20354;-48
2023/05/31 18:23:21;;;;;;;9.43;5.50;;;14.50;99.90;;;;;;20902553;28;20071;-47
2023/05/31 18:33:23;;;;;;;10.98;6.65;;;14.20;99.90;;;;;;20907206;28;20044;-47
2023/05/31 18:43:25;;;;;;;9.73;6.40;;;13.70;99.90;;;;;;20900260;28;20033;-48
2023/05/31 18:53:26;;;;;;;9.52;6.20;;;13.00;99.90;;;;;;20902464;28;20095;-51
2023/05/31 19:03:28;;;;;;;10.75;6.18;;;12.70;99.90;;;;;;20902672;28;20079;-45
2023/05/31 19:13:30;;;;;;;8.05;6.57;;;12.50;99.90;;;;;;20902252;28;20079;-45
2023/05/31 19:23:31;;;;;;;9.73;6.40;;;12.20;99.90;;;;;;20899331;28;20033;-49
2023/05/31 19:33:33;;;;;;;8.02;5.85;;;11.90;99.90;;;;;;20910993;28;20076;-48
2023/05/31 19:43:35;;;;;;;10.38;6.90;;;11.50;99.90;;;;;;20918048;28;20051;-46
2023/05/31 19:53:37;;;;;;;10.30;6.30;;;11.20;99.90;;;;;;20914102;28;20036;-45
2023/05/31 20:03:39;;;;;;;10.57;6.00;;;11.00;99.90;;;;;;20916284;28;20098;-48
2023/05/31 20:13:41;;;;;;;10.63;6.63;;;10.90;99.90;;;;;;20917153;28;20041;-46
2023/05/31 20:23:43;;;;;;;9.50;6.97;;;10.70;99.90;;;;;;20921755;28;20448;-51
2023/05/31 20:33:45;;;;;;;13.95;7.47;;;10.90;99.90;;;;;;20912875;28;20033;-47
2023/05/31 20:43:47;;;;;;;11.57;7.15;;;11.10;99.90;;;;;;20910653;28;20363;-47
2023/05/31 20:53:49;;;;;;;11.48;6.85;;;11.10;99.90;;;;;;20915322;28;20037;-48
2023/05/31 21:03:51;;;;;;;9.85;6.45;;;11.10;99.90;;;;;;20908879;28;20036;-47
2023/05/31 21:13:52;;;;;;;9.27;6.32;;;11.40;99.90;;;;;;20908421;28;20470;-49
2023/05/31 21:23:54;;;;;;;8.00;5.30;;;11.50;99.90;;;;;;20905273;28;20083;-50
2023/05/31 21:33:56;;;;;;;10.57;6.95;;;11.60;99.90;;;;;;20909380;28;20040;-47
2023/05/31 21:43:58;;;;;;;8.45;6.25;;;11.80;99.90;;;;;;20905906;28;20037;-47
2023/05/31 21:54:00;;;;;;;10.70;5.80;;;11.80;99.90;;;;;;20904356;28;20029;-47
2023/05/31 22:04:02;;;;;;;12.50;6.68;;;11.70;99.90;;;;;;20906307;28;20075;-50
2023/05/31 22:14:03;;;;;;;9.30;6.38;;;11.50;99.90;;;;;;20907945;28;20037;-48
2023/05/31 22:24:05;;;;;;;9.88;7.20;;;11.30;99.90;;;;;;20901729;28;20037;-48
2023/05/31 22:34:07;;;;;;;8.80;6.65;;;11.20;99.90;;;;;;20905387;28;20041;-47
2023/05/31 22:44:09;;;;;;;14.18;7.45;;;11.00;99.90;;;;;;20906853;28;20048;-50
2023/05/31 22:54:11;;;;;;;10.10;7.95;;;10.70;99.90;;;;;;20906910;28;20083;-47
2023/05/31 23:04:16;;;;;;;14.18;8.27;;;10.20;99.90;;;;;;20899823;28;20033;-47
2023/05/31 23:14:18;;;;;;;10.82;8.50;;;10.00;99.90;;;;;;20903929;28;20041;-47
2023/05/31 23:24:20;;;;;;;13.55;9.25;;;9.70;99.90;;;;;;20899736;28;20045;-48
2023/05/31 23:34:21;;;;;;;14.73;8.90;;;9.70;99.90;;;;;;20904379;28;20037;-44
2023/05/31 23:44:23;;;;;;;12.50;9.50;;;9.60;99.90;;;;;;20897537;28;20143;-45
2023/05/31 23:54:25;;;;;;;13.18;9.27;;;9.50;99.90;;;;;;20898165;28;20037;-48
